BRY Airport (Samuels Field) Information

FAA: BRY - ICAO: KBRY

BRY Airport Location

State Kentucky
County Nelson
City Bardstown
BRY Airport is 2 miles west of Bardstown, KY.
Latitude 37-48-51.6000N
Longitude 085-29-58.7000W
Elevation 668ft

KBRY Airport METARs

METAR KBRY 032155Z AUTO 24005KT 10SM CLR 20/07 A2992 RMK AO1
Altimeter 29.92"
Temperature 20.0°C (68.0°F)
Wind 240° at 5KT
Clouds Skies are clear.
Visibility 10.0mi
Time observed: 2021-12-03T21:55:00Z

BRY Airport Details

Status Operational
Activation N/A
Ownership Public
Usage Public
Chart ST LOUIS
ATC on-site No
Beacon schedule sunset-sunrise
Beacon color clear green

BRY Airport Contacts

Owner BARDSTOWN/NELSON CO ARPT BD
Owner address 1924 BOSTON ROAD, BARDSTOWN, KY 40004
Owner phone 502-252-1712
Manager MARY & DEAN SANDERS
Manager address 19105 142ND ST., WINCHESTER, KS 66097
Manager phone (913) 683-3573

BRY Airport (Samuels Field) Radio Frequencies

BRY (Airport) Radio Frequencies

UNICOM 122.8
Common traffic advisory frequency (CTAF) 122.8